Time;durP1;ratioP1;P1;durP2;ratioP2;P2;SDS_P1;SDS_P2;PMS_P1;PMS_P2;Temp;Humidity;BMP_temperature;BMP_pressure;BME280_temperature;BME280_humidity;BME280_pressure;Samples;Min_cycle;Max_cycle;Signal;HPM_P1;HPM_P2
2023/03/01 00:01:26;;;;;;;22.33;11.33;;;10.30;81.40;;;;;;5001108;28;20239;-77
2023/03/01 00:03:56;;;;;;;22.87;10.87;;;10.30;81.30;;;;;;5005008;28;20200;-77
2023/03/01 00:06:25;;;;;;;25.90;11.50;;;10.40;81.30;;;;;;5011416;28;20679;-77
2023/03/01 00:08:53;;;;;;;21.57;11.23;;;10.40;81.40;;;;;;5003677;28;20201;-77
2023/03/01 00:11:23;;;;;;;22.30;12.03;;;10.40;81.50;;;;;;5004349;28;20307;-78
2023/03/01 00:13:54;;;;;;;22.17;11.03;;;10.40;81.20;;;;;;4997443;28;20192;-76
2023/03/01 00:16:25;;;;;;;20.27;10.40;;;10.40;81.10;;;;;;4998344;28;22636;-77
2023/03/01 00:18:55;;;;;;;19.83;10.43;;;10.40;81.20;;;;;;5000467;28;20216;-77
2023/03/01 00:21:24;;;;;;;20.23;10.40;;;10.40;81.30;;;;;;5005277;28;20228;-77
2023/03/01 00:23:53;;;;;;;19.90;10.43;;;10.50;81.40;;;;;;5008704;28;20699;-77
2023/03/01 00:26:23;;;;;;;20.80;10.47;;;10.40;81.10;;;;;;5004438;28;20201;-76
2023/03/01 00:28:51;;;;;;;18.70;10.17;;;10.50;81.20;;;;;;5004842;28;20296;-76
2023/03/01 00:31:22;;;;;;;19.70;10.37;;;10.40;80.90;;;;;;5005696;28;20220;-76
2023/03/01 00:33:53;;;;;;;18.03;9.47;;;10.50;81.00;;;;;;5008318;28;20205;-77
2023/03/01 00:36:22;;;;;;;17.93;10.20;;;10.50;80.70;;;;;;5006115;28;20189;-77
2023/03/01 00:38:50;;;;;;;20.00;11.03;;;10.50;80.80;;;;;;5008441;28;20204;-77
2023/03/01 00:41:22;;;;;;;20.27;10.80;;;10.50;80.70;;;;;;5002609;28;20201;-78
2023/03/01 00:43:53;;;;;;;21.60;10.80;;;10.50;80.70;;;;;;5005682;28;20204;-76
2023/03/01 00:46:24;;;;;;;20.20;10.43;;;10.40;80.60;;;;;;5003221;28;20254;-76
2023/03/01 00:48:54;;;;;;;20.27;10.60;;;10.40;80.40;;;;;;5005022;28;20315;-75
2023/03/01 00:51:24;;;;;;;17.73;9.90;;;10.50;80.60;;;;;;5005118;28;20633;-76
2023/03/01 00:53:54;;;;;;;17.53;9.63;;;10.50;80.50;;;;;;5007652;28;20729;-77
2023/03/01 00:56:22;;;;;;;22.67;11.07;;;10.50;80.40;;;;;;5003073;28;20931;-77
2023/03/01 00:58:51;;;;;;;18.80;9.93;;;10.50;80.00;;;;;;5002086;28;21570;-76
2023/03/01 01:01:21;;;;;;;22.23;10.80;;;10.50;80.10;;;;;;5003718;28;20795;-75
2023/03/01 01:03:52;;;;;;;16.60;9.77;;;10.40;80.00;;;;;;5004854;28;20819;-76
2023/03/01 01:06:24;;;;;;;19.97;10.73;;;10.40;81.00;;;;;;5004134;28;20196;-76
2023/03/01 01:08:54;;;;;;;23.60;10.97;;;10.30;80.40;;;;;;5004320;28;20196;-77
2023/03/01 01:11:25;;;;;;;21.10;10.70;;;10.40;80.50;;;;;;5005218;28;20231;-76
2023/03/01 01:13:53;;;;;;;18.17;9.77;;;10.40;80.50;;;;;;5009048;28;20665;-77
2023/03/01 01:16:24;;;;;;;19.83;10.53;;;10.40;80.50;;;;;;5005834;28;20258;-76
2023/03/01 01:18:53;;;;;;;18.57;10.30;;;10.40;80.50;;;;;;5005708;28;20949;-76
2023/03/01 01:21:25;;;;;;;19.73;10.67;;;10.40;80.50;;;;;;5000904;28;20232;-76
2023/03/01 01:23:54;;;;;;;22.53;10.40;;;10.40;80.50;;;;;;5002719;28;20205;-77
2023/03/01 01:26:24;;;;;;;20.17;10.33;;;10.40;80.40;;;;;;5006216;28;20251;-77
2023/03/01 01:28:53;;;;;;;19.87;10.17;;;10.30;80.40;;;;;;5004032;28;20661;-77
2023/03/01 01:31:24;;;;;;;20.30;10.87;;;10.30;80.30;;;;;;5004418;28;20197;-76
2023/03/01 01:33:53;;;;;;;22.53;11.20;;;10.30;80.30;;;;;;5007402;28;20196;-77
2023/03/01 01:36:23;;;;;;;18.40;10.63;;;10.20;80.30;;;;;;5005852;28;20223;-77
2023/03/01 01:38:51;;;;;;;21.93;10.40;;;10.20;80.40;;;;;;5003910;28;20263;-77
2023/03/01 01:41:20;;;;;;;23.27;11.50;;;10.20;80.40;;;;;;5001640;28;20196;-76
2023/03/01 01:43:51;;;;;;;20.47;10.77;;;10.20;80.50;;;;;;5006451;28;20708;-76
2023/03/01 01:46:29;;;;;;;23.10;11.13;;;10.20;80.70;;;;;;5004012;28;20211;-77
2023/03/01 01:49:02;;;;;;;19.97;10.60;;;10.10;80.80;;;;;;5005742;28;20188;-76
2023/03/01 01:51:38;;;;;;;18.80;10.77;;;10.10;81.00;;;;;;5002690;28;20200;-77
2023/03/01 01:54:10;;;;;;;21.93;11.47;;;10.20;81.10;;;;;;4999122;28;20199;-75
2023/03/01 01:56:41;;;;;;;19.70;10.80;;;10.20;81.10;;;;;;5003023;28;20631;-75
2023/03/01 01:59:11;;;;;;;23.67;11.57;;;10.20;81.00;;;;;;5002693;28;20205;-76
2023/03/01 02:01:41;;;;;;;24.57;12.03;;;10.30;80.90;;;;;;5005086;28;20601;-75
2023/03/01 02:04:09;;;;;;;19.90;10.97;;;10.30;80.90;;;;;;5004296;28;20278;-76
2023/03/01 02:06:43;;;;;;;19.17;11.10;;;10.30;81.00;;;;;;5001897;28;20192;-77
2023/03/01 02:09:16;;;;;;;22.03;10.90;;;10.30;80.90;;;;;;5008259;28;20203;-76
2023/03/01 02:11:45;;;;;;;21.10;11.23;;;10.30;80.90;;;;;;5005761;28;20224;-76
2023/03/01 02:14:15;;;;;;;23.77;11.10;;;10.30;80.90;;;;;;5000326;28;20266;-75
2023/03/01 02:16:44;;;;;;;21.80;11.67;;;10.30;81.00;;;;;;5001916;28;20196;-76
2023/03/01 02:19:23;;;;;;;23.27;11.43;;;10.30;81.00;;;;;;5006767;28;20992;-76
2023/03/01 02:22:03;;;;;;;24.73;11.37;;;10.20;80.70;;;;;;5002262;28;20197;-75
2023/03/01 02:24:39;;;;;;;22.77;11.00;;;10.20;80.90;;;;;;5002196;28;20188;-77
2023/03/01 02:27:10;;;;;;;22.33;11.57;;;10.20;80.80;;;;;;5001191;28;20722;-76
2023/03/01 02:29:40;;;;;;;22.10;12.10;;;10.20;80.80;;;;;;4999234;28;20272;-76
2023/03/01 02:32:10;;;;;;;22.43;11.80;;;10.20;80.80;;;;;;5003601;28;20200;-76
2023/03/01 02:34:39;;;;;;;22.43;11.73;;;10.20;80.80;;;;;;5004216;28;20270;-76
2023/03/01 02:37:12;;;;;;;21.47;11.10;;;10.30;80.60;;;;;;5003632;28;20201;-76
2023/03/01 02:39:43;;;;;;;21.27;10.67;;;10.30;80.50;;;;;;5002651;28;20604;-76
2023/03/01 02:42:15;;;;;;;22.17;11.70;;;10.30;80.40;;;;;;5009675;28;20279;-76
2023/03/01 02:44:45;;;;;;;20.43;11.20;;;10.30;80.40;;;;;;5008474;28;20200;-77
2023/03/01 02:47:13;;;;;;;21.00;10.13;;;10.20;80.40;;;;;;5010609;28;20205;-76
2023/03/01 02:49:42;;;;;;;23.73;11.10;;;10.20;80.40;;;;;;5005291;28;20247;-77
2023/03/01 02:52:25;;;;;;;18.60;10.00;;;10.20;80.40;;;;;;5005297;28;20677;-77
2023/03/01 02:54:59;;;;;;;19.83;10.30;;;10.30;80.40;;;;;;5006407;28;20188;-77
2023/03/01 02:57:29;;;;;;;19.57;10.40;;;10.20;80.20;;;;;;5009647;28;20539;-76
2023/03/01 03:00:06;;;;;;;20.40;10.07;;;10.20;80.10;;;;;;5007663;28;20645;-77
2023/03/01 03:02:39;;;;;;;18.40;9.83;;;10.20;80.20;;;;;;5006372;28;20262;-76
2023/03/01 03:05:10;;;;;;;19.20;10.00;;;10.20;80.30;;;;;;5008315;28;20561;-77
2023/03/01 03:07:40;;;;;;;23.40;11.23;;;10.20;80.40;;;;;;5006654;28;20668;-76
2023/03/01 03:10:12;;;;;;;19.43;9.60;;;10.20;80.40;;;;;;5003252;28;20680;-75
2023/03/01 03:12:40;;;;;;;19.10;10.93;;;10.10;80.30;;;;;;5001607;28;20665;-77
2023/03/01 03:15:12;;;;;;;23.43;11.37;;;10.10;80.40;;;;;;5009728;28;20251;-77
2023/03/01 03:17:42;;;;;;;22.13;11.82;;;10.10;80.40;;;;;;5004494;28;20531;-76
2023/03/01 03:20:18;;;;;;;18.17;9.57;;;10.10;81.10;;;;;;5004916;28;20200;-76
2023/03/01 03:22:48;;;;;;;17.70;9.77;;;10.10;81.10;;;;;;5004613;28;20188;-75
2023/03/01 03:25:17;;;;;;;19.80;10.30;;;10.10;81.00;;;;;;5005231;28;20698;-76
2023/03/01 03:27:47;;;;;;;19.80;9.87;;;10.10;80.80;;;;;;5007146;28;20840;-77
2023/03/01 03:30:19;;;;;;;18.03;10.20;;;10.10;80.80;;;;;;5007096;28;20270;-78
2023/03/01 03:32:51;;;;;;;18.70;10.17;;;10.20;80.80;;;;;;5006293;28;20740;-77
2023/03/01 03:35:22;;;;;;;19.03;11.17;;;10.20;80.70;;;;;;5010357;28;20196;-77
2023/03/01 03:38:02;;;;;;;19.53;10.60;;;10.10;80.80;;;;;;5003740;28;20201;-77
2023/03/01 03:40:33;;;;;;;19.87;10.93;;;10.10;80.90;;;;;;5007384;28;20219;-80
2023/03/01 03:43:02;;;;;;;18.77;9.83;;;10.10;80.90;;;;;;5001239;28;20193;-77
2023/03/01 03:45:33;;;;;;;17.17;9.33;;;10.10;80.90;;;;;;5008930;28;20244;-77
2023/03/01 03:48:02;;;;;;;17.63;9.63;;;10.10;80.90;;;;;;5010137;28;20215;-77
2023/03/01 03:50:30;;;;;;;18.30;10.20;;;10.10;81.00;;;;;;5002921;28;20715;-78
2023/03/01 03:53:01;;;;;;;20.90;10.97;;;10.20;81.00;;;;;;4997121;28;20272;-77
2023/03/01 03:55:30;;;;;;;20.33;10.80;;;10.10;81.10;;;;;;5002318;28;20613;-78
2023/03/01 03:58:02;;;;;;;18.73;10.30;;;10.10;81.00;;;;;;5010831;28;20192;-75
2023/03/01 04:00:31;;;;;;;18.97;10.03;;;10.10;81.10;;;;;;5006591;28;20276;-77
2023/03/01 04:03:00;;;;;;;23.20;10.60;;;10.10;81.40;;;;;;4998091;28;20231;-78
2023/03/01 04:05:29;;;;;;;17.63;9.83;;;10.10;81.30;;;;;;4998367;28;20197;-77
2023/03/01 04:08:06;;;;;;;19.60;10.73;;;10.10;81.20;;;;;;5006419;28;20192;-76
2023/03/01 04:10:38;;;;;;;19.37;9.70;;;10.10;81.10;;;;;;5002203;28;20323;-77
2023/03/01 04:13:07;;;;;;;19.53;9.90;;;10.10;81.20;;;;;;5004540;28;20195;-75
2023/03/01 04:15:37;;;;;;;20.47;10.53;;;10.10;81.20;;;;;;5007146;28;20201;-77
2023/03/01 04:18:10;;;;;;;19.53;10.77;;;10.10;81.30;;;;;;4998958;28;20188;-76
2023/03/01 04:20:39;;;;;;;20.53;10.73;;;10.20;81.30;;;;;;5003993;28;20226;-77
2023/03/01 04:23:13;;;;;;;18.90;10.67;;;10.10;81.20;;;;;;5002716;28;20201;-77
2023/03/01 04:25:43;;;;;;;25.67;11.30;;;10.10;81.50;;;;;;5003400;28;20196;-77
2023/03/01 04:28:12;;;;;;;21.37;11.37;;;10.10;81.40;;;;;;5006736;28;20608;-78
2023/03/01 04:30:41;;;;;;;22.00;11.53;;;10.00;81.60;;;;;;5006938;28;20192;-77
2023/03/01 04:33:11;;;;;;;22.17;10.87;;;10.00;81.60;;;;;;5004961;28;20294;-76
2023/03/01 04:35:40;;;;;;;22.03;10.40;;;10.00;81.90;;;;;;5006123;28;20743;-76
2023/03/01 04:38:09;;;;;;;22.30;11.27;;;10.00;81.90;;;;;;5008728;28;20200;-77
2023/03/01 04:40:38;;;;;;;22.07;10.43;;;10.00;81.80;;;;;;5003696;28;20646;-77
2023/03/01 04:43:06;;;;;;;19.40;10.83;;;10.00;81.90;;;;;;5007066;28;20204;-77
2023/03/01 04:45:38;;;;;;;21.57;10.70;;;10.00;82.10;;;;;;5006741;28;20746;-77
2023/03/01 04:48:08;;;;;;;22.07;10.97;;;9.90;82.20;;;;;;5001588;28;20193;-77
2023/03/01 04:50:36;;;;;;;20.93;10.73;;;10.00;82.30;;;;;;5007159;28;20192;-77
2023/03/01 04:53:05;;;;;;;21.30;10.17;;;10.00;82.20;;;;;;5006757;28;20196;-77
2023/03/01 04:55:34;;;;;;;21.37;11.33;;;10.00;82.30;;;;;;5003175;28;20193;-77
2023/03/01 04:58:02;;;;;;;23.43;11.57;;;10.00;82.30;;;;;;5004685;28;20189;-77
2023/03/01 05:00:31;;;;;;;21.93;10.67;;;10.00;82.40;;;;;;5003323;28;20192;-79
2023/03/01 05:03:01;;;;;;;21.63;11.30;;;10.00;82.50;;;;;;5004290;28;20196;-78
2023/03/01 05:05:34;;;;;;;22.10;11.43;;;10.00;82.60;;;;;;5000945;28;20681;-77
2023/03/01 05:08:04;;;;;;;27.67;12.27;;;10.00;82.50;;;;;;5002499;28;20189;-76
2023/03/01 05:10:35;;;;;;;23.80;10.73;;;10.00;82.60;;;;;;5002044;28;20274;-77
2023/03/01 05:13:05;;;;;;;21.17;11.00;;;10.00;82.60;;;;;;4999981;28;20185;-76
2023/03/01 05:15:33;;;;;;;19.70;10.73;;;10.00;82.60;;;;;;4999771;28;20201;-76
2023/03/01 05:18:02;;;;;;;24.13;11.57;;;10.00;82.70;;;;;;5004886;28;20209;-76
2023/03/01 05:20:31;;;;;;;24.90;11.03;;;10.00;82.70;;;;;;5005726;28;20254;-77
2023/03/01 05:23:04;;;;;;;20.93;10.77;;;10.00;82.90;;;;;;5004161;28;20196;-76
2023/03/01 05:25:39;;;;;;;22.60;11.17;;;10.00;82.90;;;;;;5005111;28;20275;-76
2023/03/01 05:28:12;;;;;;;23.63;10.97;;;10.00;82.80;;;;;;5004266;28;20203;-77
2023/03/01 05:30:41;;;;;;;22.87;11.00;;;10.00;82.80;;;;;;5006445;28;20199;-79
2023/03/01 05:33:13;;;;;;;17.63;10.13;;;10.10;82.80;;;;;;5000864;28;20200;-77
2023/03/01 05:35:44;;;;;;;21.30;10.37;;;10.10;82.80;;;;;;5006532;28;20196;-77
2023/03/01 05:38:14;;;;;;;21.57;10.47;;;10.00;82.70;;;;;;5002125;28;20199;-77
2023/03/01 05:40:44;;;;;;;26.07;11.20;;;10.10;82.80;;;;;;5005691;28;20192;-78
2023/03/01 05:43:13;;;;;;;23.20;11.40;;;10.10;82.90;;;;;;4999209;28;20616;-77
2023/03/01 05:45:42;;;;;;;21.60;11.23;;;10.10;82.80;;;;;;5006936;28;20266;-77
2023/03/01 05:48:12;;;;;;;21.77;10.83;;;10.10;82.70;;;;;;5003419;28;20254;-76
2023/03/01 05:50:44;;;;;;;25.53;12.17;;;10.10;82.70;;;;;;5004116;28;20192;-76
2023/03/01 05:53:14;;;;;;;22.47;11.40;;;10.10;82.70;;;;;;5004964;28;20209;-77
2023/03/01 05:55:43;;;;;;;23.83;12.00;;;10.20;82.70;;;;;;5002800;28;20192;-77
2023/03/01 05:58:14;;;;;;;23.30;11.40;;;10.20;82.60;;;;;;4997993;28;20212;-76
2023/03/01 06:00:44;;;;;;;24.23;10.73;;;10.30;82.60;;;;;;4992859;28;20276;-77
2023/03/01 06:03:14;;;;;;;21.23;11.30;;;10.30;82.50;;;;;;5004340;28;20202;-77
2023/03/01 06:05:45;;;;;;;21.30;12.00;;;10.30;82.40;;;;;;5001815;28;20920;-78
2023/03/01 06:08:14;;;;;;;22.63;13.18;;;10.20;82.60;;;;;;5001601;28;20443;-78
2023/03/01 06:10:42;;;;;;;22.40;11.87;;;10.20;82.60;;;;;;4994372;28;20233;-76
2023/03/01 06:13:11;;;;;;;21.07;11.73;;;10.20;82.70;;;;;;4995740;28;20192;-76
2023/03/01 06:15:39;;;;;;;21.37;11.43;;;10.30;82.70;;;;;;5001772;28;22446;-77
2023/03/01 06:18:08;;;;;;;21.33;10.97;;;10.30;82.70;;;;;;5000802;28;20291;-76
2023/03/01 06:20:36;;;;;;;25.50;10.93;;;10.40;82.60;;;;;;5001167;28;20196;-76
2023/03/01 06:23:06;;;;;;;22.00;11.43;;;10.40;82.60;;;;;;5003767;28;20196;-76
2023/03/01 06:25:36;;;;;;;23.50;11.50;;;10.40;82.50;;;;;;5005005;28;20212;-77
2023/03/01 06:28:05;;;;;;;22.77;12.33;;;10.30;82.50;;;;;;5005652;28;20188;-77
2023/03/01 06:30:33;;;;;;;25.10;12.37;;;10.30;82.50;;;;;;4998918;28;20223;-77
2023/03/01 06:33:04;;;;;;;28.70;12.20;;;10.30;82.50;;;;;;4993303;28;20533;-77
2023/03/01 06:35:32;;;;;;;21.43;11.50;;;10.30;82.50;;;;;;5000605;28;20185;-77
2023/03/01 06:38:02;;;;;;;24.13;11.87;;;10.40;82.60;;;;;;5002685;28;20216;-78
2023/03/01 06:40:35;;;;;;;20.73;11.80;;;10.30;82.60;;;;;;5003656;28;20719;-78
2023/03/01 06:43:03;;;;;;;21.93;11.17;;;10.30;82.70;;;;;;5007410;28;20189;-77
2023/03/01 06:45:32;;;;;;;27.97;12.87;;;10.30;82.70;;;;;;5001873;28;20212;-77
2023/03/01 06:48:05;;;;;;;27.13;13.73;;;10.30;83.20;;;;;;5005728;28;20521;-76
2023/03/01 06:50:34;;;;;;;35.10;15.90;;;10.30;83.30;;;;;;5005717;28;20193;-77
2023/03/01 06:53:03;;;;;;;32.40;13.93;;;10.30;83.50;;;;;;5003331;28;20192;-78
2023/03/01 06:55:33;;;;;;;31.00;14.87;;;10.30;83.50;;;;;;5003880;28;20199;-78
2023/03/01 06:58:03;;;;;;;28.37;14.50;;;10.30;83.40;;;;;;5001649;28;21136;-77
2023/03/01 07:00:32;;;;;;;27.17;13.43;;;10.30;83.50;;;;;;5010357;28;20211;-77
2023/03/01 07:03:03;;;;;;;31.03;14.10;;;10.30;83.30;;;;;;5003900;28;20646;-77
2023/03/01 07:05:31;;;;;;;34.17;14.47;;;10.40;83.40;;;;;;5006532;28;20596;-78
2023/03/01 07:08:00;;;;;;;33.00;15.23;;;10.40;83.40;;;;;;5010108;28;20603;-77
2023/03/01 07:10:28;;;;;;;32.80;15.63;;;10.40;83.40;;;;;;4955563;28;1343072;-77
2023/03/01 07:13:02;;;;;;;29.70;14.93;;;10.40;83.30;;;;;;5003175;28;20192;-75
2023/03/01 07:15:30;;;;;;;24.83;13.30;;;10.40;83.30;;;;;;4999139;28;20197;-77
2023/03/01 07:17:58;;;;;;;25.80;12.83;;;10.40;83.30;;;;;;5008775;28;20205;-77
2023/03/01 07:20:27;;;;;;;27.63;13.80;;;10.40;83.30;;;;;;5006659;28;20197;-76
2023/03/01 07:22:56;;;;;;;36.00;15.03;;;10.40;83.40;;;;;;4999448;28;20224;-76
2023/03/01 07:25:24;;;;;;;29.73;14.97;;;10.50;83.50;;;;;;4999634;28;20228;-76
2023/03/01 07:27:53;;;;;;;30.00;13.43;;;10.50;83.50;;;;;;5001351;28;20212;-76
2023/03/01 07:30:25;;;;;;;23.07;12.30;;;10.50;83.50;;;;;;5006330;28;20298;-77
2023/03/01 07:32:54;;;;;;;26.53;13.47;;;10.50;83.60;;;;;;5014207;28;20223;-77
2023/03/01 07:35:24;;;;;;;28.37;12.97;;;10.50;83.50;;;;;;5006553;28;20558;-77
2023/03/01 07:37:54;;;;;;;30.07;13.97;;;10.50;83.40;;;;;;5007379;28;20195;-77
2023/03/01 07:40:23;;;;;;;28.70;14.17;;;10.50;83.50;;;;;;5013892;28;20395;-76
2023/03/01 07:42:57;;;;;;;23.20;13.20;;;10.50;83.40;;;;;;5006155;28;20208;-77
2023/03/01 07:45:27;;;;;;;26.60;13.43;;;10.50;83.40;;;;;;5007608;28;20226;-77
2023/03/01 07:47:56;;;;;;;26.57;14.63;;;10.50;83.50;;;;;;5014999;28;20236;-78
2023/03/01 07:50:24;;;;;;;26.47;13.97;;;10.50;83.40;;;;;;5010651;28;20251;-77
2023/03/01 07:52:53;;;;;;;28.20;14.47;;;10.50;84.40;;;;;;5009503;28;20197;-77
2023/03/01 07:55:21;;;;;;;24.93;13.73;;;10.50;83.60;;;;;;5008005;28;20267;-76
2023/03/01 07:57:49;;;;;;;26.63;13.83;;;10.50;83.80;;;;;;5014768;28;20196;-77
2023/03/01 08:00:18;;;;;;;27.63;13.97;;;10.60;83.90;;;;;;5003303;28;20208;-76
2023/03/01 08:02:48;;;;;;;22.20;12.53;;;10.60;83.80;;;;;;5006229;28;20679;-76
2023/03/01 08:05:17;;;;;;;29.10;13.47;;;10.60;83.80;;;;;;5002975;28;20232;-77
2023/03/01 08:07:45;;;;;;;25.97;13.70;;;10.60;83.70;;;;;;5004340;28;20255;-78
2023/03/01 08:10:15;;;;;;;28.10;14.00;;;10.60;83.70;;;;;;5012505;28;20657;-78
2023/03/01 08:12:43;;;;;;;34.10;15.17;;;10.70;83.70;;;;;;5003790;28;20735;-77
2023/03/01 08:15:12;;;;;;;35.40;16.13;;;10.70;83.80;;;;;;5008009;28;20251;-77
2023/03/01 08:17:41;;;;;;;31.60;15.63;;;10.70;83.70;;;;;;5000603;28;20648;-77
2023/03/01 08:20:12;;;;;;;29.10;14.00;;;10.70;83.80;;;;;;4999171;28;23061;-77
2023/03/01 08:22:41;;;;;;;28.97;15.03;;;10.70;83.90;;;;;;5004403;28;20242;-77
2023/03/01 08:25:09;;;;;;;28.77;14.43;;;10.70;83.90;;;;;;5005567;28;20246;-77
2023/03/01 08:27:38;;;;;;;24.53;12.63;;;10.70;84.00;;;;;;5009771;28;20278;-77
2023/03/01 08:30:08;;;;;;;27.10;13.57;;;10.80;83.90;;;;;;5008376;28;20213;-77
2023/03/01 08:32:40;;;;;;;26.90;13.87;;;10.70;83.80;;;;;;5010179;28;20765;-77
2023/03/01 08:35:09;;;;;;;27.20;14.83;;;10.80;83.90;;;;;;5007037;28;20224;-77
2023/03/01 08:37:40;;;;;;;32.77;15.97;;;10.80;83.80;;;;;;5007122;28;20197;-77
2023/03/01 08:40:09;;;;;;;29.07;13.77;;;10.80;83.90;;;;;;5007906;28;20201;-75
2023/03/01 08:42:38;;;;;;;24.47;12.20;;;10.80;84.10;;;;;;5010382;28;20251;-76
2023/03/01 08:45:08;;;;;;;25.53;13.23;;;10.80;84.10;;;;;;5004592;28;20199;-78
2023/03/01 08:47:36;;;;;;;24.03;13.07;;;10.90;84.00;;;;;;4993947;28;20301;-77
2023/03/01 08:50:05;;;;;;;27.40;13.60;;;10.90;83.90;;;;;;5000417;28;20215;-76
2023/03/01 08:52:34;;;;;;;25.30;13.80;;;10.90;84.60;;;;;;5005241;28;20231;-76
2023/03/01 08:55:04;;;;;;;26.90;13.77;;;10.90;83.70;;;;;;5008621;28;20189;-77
2023/03/01 08:57:34;;;;;;;26.00;13.87;;;11.00;83.70;;;;;;5010763;28;20189;-76
2023/03/01 09:00:07;;;;;;;30.20;13.60;;;11.00;83.70;;;;;;5002390;28;20275;-76
2023/03/01 09:02:36;;;;;;;28.50;15.20;;;11.00;83.60;;;;;;5007348;28;20201;-76
2023/03/01 09:05:04;;;;;;;32.27;16.17;;;11.00;83.60;;;;;;5010933;28;20192;-76
2023/03/01 09:07:33;;;;;;;33.27;16.20;;;11.10;83.60;;;;;;5007603;28;20222;-77
2023/03/01 09:10:03;;;;;;;30.63;15.80;;;11.10;83.40;;;;;;5001943;28;20215;-78
2023/03/01 09:12:31;;;;;;;30.03;14.87;;;11.10;83.30;;;;;;5005334;28;20224;-77
2023/03/01 09:15:00;;;;;;;26.97;13.10;;;11.10;83.20;;;;;;5004762;28;20254;-75
2023/03/01 09:17:28;;;;;;;25.20;13.13;;;11.10;83.10;;;;;;5006456;28;20247;-76
2023/03/01 09:19:56;;;;;;;27.00;14.00;;;11.10;83.10;;;;;;4991255;28;20317;-77
2023/03/01 09:22:24;;;;;;;23.47;13.13;;;11.10;82.80;;;;;;4999525;28;20196;-78
2023/03/01 09:24:53;;;;;;;24.13;13.33;;;11.10;82.90;;;;;;5007623;28;20231;-77
2023/03/01 09:27:53;;;;;;;24.83;12.57;;;11.10;83.00;;;;;;5006473;28;20228;-78
2023/03/01 09:30:22;;;;;;;26.53;12.00;;;11.10;83.30;;;;;;5005352;28;20192;-76
2023/03/01 09:32:50;;;;;;;22.40;11.93;;;11.10;83.30;;;;;;5005391;28;20250;-77
2023/03/01 09:35:27;;;;;;;23.93;12.40;;;11.20;83.30;;;;;;5002661;28;20200;-77
2023/03/01 09:37:56;;;;;;;27.10;13.17;;;11.20;83.20;;;;;;5002923;28;20188;-76
2023/03/01 09:40:28;;;;;;;22.60;12.37;;;11.20;83.20;;;;;;5009003;28;20669;-77
2023/03/01 09:43:25;;;;;;;27.03;13.53;;;11.20;83.10;;;;;;5007611;28;20220;-78
2023/03/01 09:45:56;;;;;;;24.00;12.13;;;11.10;83.00;;;;;;5007619;28;20196;-77
2023/03/01 09:48:28;;;;;;;25.10;12.93;;;11.10;83.00;;;;;;5004961;28;20219;-77
2023/03/01 09:50:58;;;;;;;25.87;13.40;;;11.10;83.00;;;;;;5003298;28;20189;-77
2023/03/01 09:53:40;;;;;;;32.07;12.87;;;11.10;83.00;;;;;;5002170;28;20227;-77
2023/03/01 09:56:21;;;;;;;27.00;12.43;;;11.00;82.90;;;;;;5006215;28;20200;-79
2023/03/01 09:58:59;;;;;;;26.20;12.80;;;11.00;83.00;;;;;;5003818;28;20835;-76
2023/03/01 10:01:34;;;;;;;25.53;13.30;;;11.00;83.10;;;;;;5001533;28;20258;-77
2023/03/01 10:04:29;;;;;;;23.23;13.17;;;11.00;83.10;;;;;;4999664;28;20192;-77
2023/03/01 10:07:08;;;;;;;23.60;12.83;;;11.10;83.40;;;;;;5004055;28;20212;-78
2023/03/01 10:09:39;;;;;;;24.03;12.73;;;11.10;83.40;;;;;;5003051;28;20243;-78
2023/03/01 10:12:12;;;;;;;23.33;11.53;;;11.10;83.50;;;;;;4995778;28;20223;-77
2023/03/01 10:14:52;;;;;;;27.40;12.43;;;11.00;83.00;;;;;;5000971;28;20246;-76
2023/03/01 10:17:28;;;;;;;28.97;11.83;;;10.90;82.80;;;;;;5009570;28;20266;-77
2023/03/01 10:19:58;;;;;;;24.20;12.80;;;11.00;83.10;;;;;;5003901;28;20203;-76
2023/03/01 10:22:31;;;;;;;28.23;12.97;;;11.00;83.10;;;;;;5006283;28;20204;-77
2023/03/01 10:25:02;;;;;;;27.93;13.63;;;11.00;83.40;;;;;;5005403;28;20563;-78
2023/03/01 10:27:39;;;;;;;26.50;12.23;;;11.00;83.20;;;;;;5001763;28;20220;-77
2023/03/01 10:30:19;;;;;;;24.37;11.57;;;11.00;83.30;;;;;;5000441;28;20295;-77
2023/03/01 10:32:50;;;;;;;21.33;11.07;;;11.10;83.40;;;;;;5005089;28;20193;-77
2023/03/01 10:35:20;;;;;;;24.20;11.17;;;11.00;83.10;;;;;;5001609;28;20720;-76
2023/03/01 10:37:59;;;;;;;24.70;11.50;;;11.10;83.10;;;;;;4997661;28;20246;-77
2023/03/01 10:40:27;;;;;;;25.60;11.97;;;11.10;83.10;;;;;;5002354;28;20286;-76
2023/03/01 10:43:00;;;;;;;22.30;11.53;;;11.10;82.90;;;;;;5008636;28;20654;-76
2023/03/01 10:45:35;;;;;;;23.37;11.27;;;11.10;82.80;;;;;;5002085;28;20192;-75
2023/03/01 10:48:24;;;;;;;26.43;11.40;;;11.10;83.00;;;;;;5005060;28;20257;-75
2023/03/01 10:51:06;;;;;;;21.57;11.80;;;11.10;83.20;;;;;;5004638;28;20185;-76
2023/03/01 10:53:36;;;;;;;22.93;10.57;;;11.20;83.30;;;;;;5010049;28;20231;-75
2023/03/01 10:56:08;;;;;;;21.67;12.10;;;11.20;83.20;;;;;;5010212;28;20196;-76
2023/03/01 10:58:37;;;;;;;21.87;11.07;;;11.20;83.30;;;;;;5006852;28;20238;-76
2023/03/01 11:01:26;;;;;;;20.40;10.80;;;11.20;83.30;;;;;;5012194;28;20200;-75
2023/03/01 11:04:12;;;;;;;19.80;10.10;;;11.30;83.40;;;;;;5015666;28;20280;-75
2023/03/01 11:06:42;;;;;;;22.93;10.17;;;11.30;83.30;;;;;;5009240;28;20627;-76
2023/03/01 11:09:19;;;;;;;20.70;11.03;;;11.30;83.30;;;;;;5009073;28;20220;-76
2023/03/01 11:11:52;;;;;;;21.47;11.47;;;11.30;83.20;;;;;;5011047;28;20216;-76
2023/03/01 11:14:23;;;;;;;24.97;11.00;;;11.40;83.30;;;;;;5013629;28;20596;-76
2023/03/01 11:17:04;;;;;;;20.40;10.37;;;11.40;83.00;;;;;;5010627;28;20189;-77
2023/03/01 11:19:33;;;;;;;22.93;11.97;;;11.40;83.00;;;;;;5014083;28;20196;-77
2023/03/01 11:22:04;;;;;;;21.93;11.30;;;11.40;82.10;;;;;;5013545;28;20208;-78
2023/03/01 11:24:39;;;;;;;21.50;10.07;;;11.50;82.50;;;;;;5006462;28;20202;-77
2023/03/01 11:27:18;;;;;;;21.83;9.83;;;11.50;82.10;;;;;;5007455;28;20192;-77
2023/03/01 11:29:52;;;;;;;24.57;10.53;;;11.60;82.40;;;;;;5008060;28;20188;-76
2023/03/01 11:32:25;;;;;;;22.37;11.33;;;11.60;82.30;;;;;;5010034;28;20193;-76
2023/03/01 11:34:58;;;;;;;22.40;10.23;;;11.70;82.20;;;;;;5008342;28;20199;-77
2023/03/01 11:37:36;;;;;;;18.17;9.67;;;11.70;82.30;;;;;;5016357;28;20197;-77
2023/03/01 11:40:13;;;;;;;21.03;9.93;;;11.70;82.20;;;;;;5005908;28;20196;-76
2023/03/01 11:42:57;;;;;;;20.30;10.47;;;11.70;82.30;;;;;;5009709;28;20200;-76
2023/03/01 11:45:30;;;;;;;20.93;10.83;;;11.80;82.00;;;;;;5008383;28;20711;-77
2023/03/01 11:48:20;;;;;;;24.13;10.73;;;11.80;81.60;;;;;;5008369;28;21549;-76
2023/03/01 11:50:50;;;;;;;23.63;10.67;;;11.80;81.10;;;;;;5006056;28;20540;-76
2023/03/01 11:53:50;;;;;;;22.57;10.47;;;11.80;80.70;;;;;;5011744;28;20219;-77
2023/03/01 11:56:29;;;;;;;22.13;11.37;;;11.80;80.90;;;;;;5004593;28;20189;-76
2023/03/01 11:59:30;;;;;;;22.83;11.20;;;11.90;81.00;;;;;;5001593;28;20224;-77
2023/03/01 12:02:29;;;;;;;22.67;10.63;;;11.90;80.90;;;;;;5010940;28;20200;-77
2023/03/01 12:05:21;;;;;;;21.40;10.30;;;11.90;81.00;;;;;;5008081;28;20189;-77
2023/03/01 12:07:58;;;;;;;21.97;11.27;;;11.90;81.00;;;;;;5003572;28;20219;-77
2023/03/01 12:10:29;;;;;;;30.27;10.60;;;11.90;80.70;;;;;;5001896;28;20274;-77
2023/03/01 12:13:24;;;;;;;24.57;10.70;;;12.00;80.80;;;;;;5004699;28;20295;-77
2023/03/01 12:16:09;;;;;;;24.10;10.77;;;12.10;80.90;;;;;;5002261;28;20188;-78
2023/03/01 12:18:58;;;;;;;18.97;10.20;;;12.10;80.40;;;;;;5006448;28;20239;-77
2023/03/01 12:21:40;;;;;;;19.83;10.90;;;12.20;80.10;;;;;;5011083;28;20540;-77
2023/03/01 12:24:31;;;;;;;20.00;10.53;;;12.20;79.80;;;;;;5009020;28;20572;-78
2023/03/01 12:27:22;;;;;;;22.10;11.37;;;12.20;80.00;;;;;;5001467;28;20201;-77
2023/03/01 12:30:01;;;;;;;19.43;9.93;;;12.30;79.90;;;;;;5006494;28;20224;-77
2023/03/01 12:32:44;;;;;;;22.60;11.20;;;12.40;79.70;;;;;;5007917;28;20645;-78
2023/03/01 12:35:29;;;;;;;24.37;10.97;;;12.40;79.40;;;;;;5001668;28;20279;-79
2023/03/01 12:38:09;;;;;;;20.93;10.53;;;12.40;78.80;;;;;;4997128;28;20219;-77
2023/03/01 12:40:57;;;;;;;20.93;10.60;;;12.50;79.10;;;;;;5008615;28;20201;-79
2023/03/01 12:43:36;;;;;;;23.50;10.47;;;12.50;78.60;;;;;;5008746;28;20196;-77
2023/03/01 12:46:25;;;;;;;19.97;10.30;;;12.40;77.70;;;;;;5000324;28;20189;-78
2023/03/01 12:49:03;;;;;;;21.80;9.77;;;12.40;78.40;;;;;;4999440;28;20290;-78
2023/03/01 12:51:34;;;;;;;20.23;9.67;;;12.30;78.20;;;;;;5013480;28;20235;-77
2023/03/01 12:54:15;;;;;;;17.33;9.53;;;12.30;77.80;;;;;;5006630;28;20185;-79